Time;durP1;ratioP1;P1;durP2;ratioP2;P2;SDS_P1;SDS_P2;PMS_P1;PMS_P2;Temp;Humidity;BMP_temperature;BMP_pressure;BME280_temperature;BME280_humidity;BME280_pressure;Samples;Min_cycle;Max_cycle;Signal;HPM_P1;HPM_P2
2022/02/20 00:00:06;;;;;;;7.45;1.25;;;;;;;4.49;100.00;101014.00;5053323;28;20396;-83
2022/02/20 00:02:32;;;;;;;6.78;0.98;;;;;;;4.42;100.00;101034.22;5053454;28;20033;-83
2022/02/20 00:04:57;;;;;;;6.35;1.25;;;;;;;4.41;100.00;101021.09;5052582;28;20076;-80
2022/02/20 00:07:22;;;;;;;3.95;1.02;;;;;;;4.41;100.00;101032.47;5054757;28;20583;-81
2022/02/20 00:09:47;;;;;;;5.07;0.98;;;;;;;4.43;100.00;101035.91;5052903;28;20025;-83
2022/02/20 00:12:13;;;;;;;3.63;0.65;;;;;;;4.42;100.00;101038.56;5053091;28;20475;-79
2022/02/20 00:14:38;;;;;;;4.13;0.82;;;;;;;4.47;100.00;101051.63;5052962;28;20362;-83
2022/02/20 00:17:04;;;;;;;3.13;1.20;;;;;;;4.42;100.00;101060.44;5052809;28;20025;-82
2022/02/20 00:19:29;;;;;;;5.05;1.42;;;;;;;4.43;100.00;101059.50;5053032;28;20029;-82
2022/02/20 00:21:54;;;;;;;9.52;1.88;;;;;;;4.45;99.92;101059.50;5052486;28;20029;-83
2022/02/20 00:24:20;;;;;;;8.43;1.05;;;;;;;4.52;100.00;101069.00;5053121;28;20472;-82
2022/02/20 00:26:45;;;;;;;4.70;1.20;;;;;;;4.54;100.00;101066.34;5053025;28;20033;-82
2022/02/20 00:29:10;;;;;;;7.93;1.27;;;;;;;4.51;100.00;101080.38;5055034;28;20040;-83
2022/02/20 00:31:36;;;;;;;1.80;0.85;;;;;;;4.51;100.00;101084.75;5052813;28;20539;-83
2022/02/20 00:34:01;;;;;;;8.77;1.10;;;;;;;4.50;99.74;101077.78;5052969;28;20040;-83
2022/02/20 00:36:26;;;;;;;2.80;0.73;;;;;;;4.50;100.00;101086.53;5052378;28;20029;-82
2022/02/20 00:38:52;;;;;;;5.47;0.90;;;;;;;4.51;99.98;101079.50;5053511;28;20029;-82
2022/02/20 00:41:17;;;;;;;9.65;1.20;;;;;;;4.53;100.00;101080.38;5052936;28;20028;-82
2022/02/20 00:43:42;;;;;;;4.25;0.73;;;;;;;4.54;99.85;101075.09;5052870;28;20080;-83
2022/02/20 00:46:08;;;;;;;6.18;1.52;;;;;;;4.56;99.89;101080.31;5052767;28;20036;-83
2022/02/20 00:48:33;;;;;;;5.63;0.95;;;;;;;4.53;98.51;101083.84;5052851;28;20059;-83
2022/02/20 00:50:58;;;;;;;9.07;1.50;;;;;;;4.57;98.93;101082.03;5051440;28;20069;-80
2022/02/20 00:53:26;;;;;;;6.68;0.90;;;;;;;4.58;98.93;101082.00;5052839;28;20055;-83
2022/02/20 00:55:52;;;;;;;2.28;1.25;;;;;;;4.57;98.22;101075.03;5052791;28;20048;-82
2022/02/20 00:58:17;;;;;;;5.55;0.98;;;;;;;4.62;97.33;101089.81;5052542;28;20457;-78
2022/02/20 01:00:42;;;;;;;4.50;0.68;;;;;;;4.56;97.76;101080.31;5052021;28;20056;-82
2022/02/20 01:03:08;;;;;;;5.25;1.02;;;;;;;4.58;96.96;101075.91;5052640;28;20059;-83
2022/02/20 01:05:33;;;;;;;3.20;0.90;;;;;;;4.59;97.36;101080.25;5052449;28;20025;-83
2022/02/20 01:07:58;;;;;;;1.55;0.50;;;;;;;4.59;97.32;101081.13;5052494;28;20017;-82
2022/02/20 01:10:24;;;;;;;2.92;0.70;;;;;;;4.61;97.19;101080.25;5051862;28;20044;-83
2022/02/20 01:12:49;;;;;;;3.42;0.80;;;;;;;4.63;96.96;101087.19;5052745;28;20025;-83
2022/02/20 01:15:15;;;;;;;3.40;0.82;;;;;;;4.69;97.38;101092.34;5052639;28;20104;-83
2022/02/20 01:17:41;;;;;;;2.30;0.65;;;;;;;4.68;96.81;101093.22;5055491;28;20067;-84
2022/02/20 01:20:07;;;;;;;5.82;1.02;;;;;;;4.72;97.12;101080.94;5056465;28;20053;-83
2022/02/20 01:22:32;;;;;;;4.90;0.77;;;;;;;4.75;96.79;101088.75;5057681;28;20037;-82
2022/02/20 01:24:58;;;;;;;5.15;1.08;;;;;;;4.72;97.59;101094.91;5056075;28;20024;-83
2022/02/20 01:27:24;;;;;;;4.35;0.85;;;;;;;4.75;97.10;101101.88;5056430;28;20021;-83
2022/02/20 01:29:49;;;;;;;9.25;1.15;;;;;;;4.76;96.29;101099.22;5056147;28;20091;-82
2022/02/20 01:32:15;;;;;;;4.05;1.00;;;;;;;4.75;96.33;101107.13;5057739;28;20044;-77
2022/02/20 01:34:41;;;;;;;6.03;0.88;;;;;;;4.73;96.44;101098.38;5056007;28;20040;-79
2022/02/20 01:37:07;;;;;;;4.13;1.05;;;;;;;4.74;96.12;101100.13;5055903;28;20064;-83
2022/02/20 01:39:32;;;;;;;7.07;1.88;;;;;;;4.75;96.26;101086.13;5055820;28;20059;-83
2022/02/20 01:41:58;;;;;;;4.38;0.85;;;;;;;4.74;95.98;101068.66;5057033;28;20079;-82
2022/02/20 01:44:23;;;;;;;5.03;1.08;;;;;;;4.74;95.95;101077.41;5056992;28;20021;-78
2022/02/20 01:46:50;;;;;;;6.35;0.82;;;;;;;4.74;96.49;101079.13;5055891;28;20025;-83
2022/02/20 01:49:19;;;;;;;5.15;1.17;;;;;;;4.72;96.43;101066.06;5055861;28;20477;-83
2022/02/20 01:51:45;;;;;;;4.85;0.95;;;;;;;4.69;96.44;101071.38;5056690;28;20728;-84
2022/02/20 01:54:11;;;;;;;7.18;1.25;;;;;;;4.70;96.07;101075.69;5049111;28;20132;-82
2022/02/20 01:56:37;;;;;;;5.05;0.95;;;;;;;4.64;96.24;101082.81;5055613;28;20113;-83
2022/02/20 01:59:04;;;;;;;7.40;1.05;;;;;;;4.56;97.18;101078.53;5054391;28;20033;-83
2022/02/20 02:01:30;;;;;;;6.60;1.08;;;;;;;4.57;96.71;101080.28;5055594;28;20028;-83
2022/02/20 02:03:56;;;;;;;13.82;1.63;;;;;;;4.60;96.40;101081.97;5057439;28;20052;-80
2022/02/20 02:06:21;;;;;;;8.93;1.33;;;;;;;4.56;96.96;101080.31;5053461;28;20071;-81
2022/02/20 02:08:47;;;;;;;4.40;0.93;;;;;;;4.56;96.77;101073.28;5055213;28;20491;-82
2022/02/20 02:11:12;;;;;;;4.82;1.00;;;;;;;4.55;96.74;101071.59;5055264;28;20657;-83
2022/02/20 02:13:38;;;;;;;7.10;1.10;;;;;;;4.52;96.89;101070.75;5056239;28;20029;-83
2022/02/20 02:16:04;;;;;;;7.28;1.00;;;;;;;4.48;96.59;101063.84;5071519;28;20391;-82
2022/02/20 02:18:29;;;;;;;6.20;1.05;;;;;;;4.44;97.32;101063.03;5075705;28;20020;-83
2022/02/20 02:20:55;;;;;;;5.90;1.00;;;;;;;4.38;97.02;101053.47;5075409;28;20071;-79
2022/02/20 02:23:20;;;;;;;7.38;1.10;;;;;;;4.34;97.02;101057.03;5073729;28;20056;-81
2022/02/20 02:25:51;;;;;;;6.22;1.25;;;;;;;4.35;97.21;101066.66;5070532;28;20067;-83
2022/02/20 02:28:17;;;;;;;6.07;0.90;;;;;;;4.36;96.56;101057.00;5075097;28;20111;-83
2022/02/20 02:30:43;;;;;;;4.18;1.08;;;;;;;4.38;96.80;101063.13;5075168;28;20032;-82
2022/02/20 02:33:09;;;;;;;4.38;1.17;;;;;;;4.35;96.68;101045.66;5074798;28;20589;-84
2022/02/20 02:35:34;;;;;;;3.35;1.27;;;;;;;4.31;96.34;101041.38;5071245;28;20028;-84
2022/02/20 02:38:00;;;;;;;3.42;0.95;;;;;;;4.30;96.97;101030.88;5075050;28;20033;-84
2022/02/20 02:40:25;;;;;;;8.15;1.60;;;;;;;4.27;97.04;101031.78;5074414;28;20469;-83
2022/02/20 02:42:51;;;;;;;4.68;0.75;;;;;;;4.24;97.70;101029.25;5074829;28;20354;-83
2022/02/20 02:45:16;;;;;;;2.47;0.85;;;;;;;4.22;97.18;101025.75;5072933;28;20028;-84
2022/02/20 02:47:46;;;;;;;5.25;1.40;;;;;;;4.24;97.01;101031.88;5072899;28;20035;-83
2022/02/20 02:50:12;;;;;;;4.78;1.30;;;;;;;4.21;97.36;101027.53;5074608;28;20024;-83
2022/02/20 02:52:37;;;;;;;4.15;1.00;;;;;;;4.18;97.77;101024.97;5074562;28;20055;-84
2022/02/20 02:55:04;;;;;;;6.28;1.50;;;;;;;4.17;97.48;101036.34;5072288;28;20103;-83
2022/02/20 02:57:29;;;;;;;5.97;1.40;;;;;;;4.17;98.26;101046.81;5072306;28;20031;-83
2022/02/20 02:59:54;;;;;;;6.57;1.90;;;;;;;4.17;97.58;101043.31;5072760;28;20052;-84
2022/02/20 03:02:20;;;;;;;5.85;1.60;;;;;;;4.15;97.73;101037.25;5061588;28;20057;-83
2022/02/20 03:04:45;;;;;;;6.10;1.55;;;;;;;4.09;97.51;101030.31;5054382;28;20029;-85
2022/02/20 03:07:13;;;;;;;8.05;1.80;;;;;;;4.08;98.35;101028.63;5053261;28;20112;-83
2022/02/20 03:09:39;;;;;;;4.57;1.80;;;;;;;4.03;98.77;101020.81;5054419;28;20391;-85
2022/02/20 03:12:05;;;;;;;9.73;2.25;;;;;;;4.05;99.67;101011.19;5053713;28;20543;-85
2022/02/20 03:14:31;;;;;;;9.52;2.67;;;;;;;4.07;99.75;101001.53;5054085;28;20031;-85
2022/02/20 03:16:57;;;;;;;12.13;3.22;;;;;;;4.06;99.69;100989.31;5053492;28;20066;-85
2022/02/20 03:19:22;;;;;;;7.28;3.67;;;;;;;4.04;100.00;100991.09;5054893;28;20100;-85
2022/02/20 03:21:47;;;;;;;10.13;3.40;;;;;;;4.03;100.00;100997.22;5054349;28;20029;-84
2022/02/20 03:24:13;;;;;;;5.88;3.22;;;;;;;4.01;100.00;100990.28;5054199;28;20029;-85
2022/02/20 03:26:38;;;;;;;10.32;3.45;;;;;;;4.02;100.00;100979.78;5053457;28;20115;-85
2022/02/20 03:29:04;;;;;;;9.38;3.58;;;;;;;4.04;100.00;100975.38;5054175;28;20075;-84
2022/02/20 03:31:29;;;;;;;16.10;4.55;;;;;;;4.05;100.00;100989.34;5053905;28;20025;-84
2022/02/20 03:33:54;;;;;;;7.22;3.28;;;;;;;4.06;100.00;100984.06;5053583;28;20036;-84
2022/02/20 03:36:20;;;;;;;10.52;3.33;;;;;;;4.07;100.00;100975.31;5053857;28;20025;-80
2022/02/20 03:38:45;;;;;;;9.18;3.58;;;;;;;4.09;100.00;100970.94;5052973;28;20067;-80
2022/02/20 03:41:10;;;;;;;9.20;3.70;;;;;;;4.08;100.00;100969.19;5054000;28;20064;-83
2022/02/20 03:43:36;;;;;;;12.32;4.57;;;;;;;4.08;100.00;100974.44;5053715;28;20116;-81
2022/02/20 03:46:02;;;;;;;10.80;5.78;;;;;;;4.07;100.00;100967.47;5053527;28;20104;-84
2022/02/20 03:48:27;;;;;;;14.45;6.22;;;;;;;4.02;100.00;100964.06;5053167;28;20021;-85
2022/02/20 03:50:53;;;;;;;11.90;5.90;;;;;;;4.02;100.00;100964.06;5054276;28;20032;-82
2022/02/20 03:53:18;;;;;;;9.73;5.65;;;;;;;4.02;100.00;100955.34;5053238;28;20473;-83
2022/02/20 03:55:44;;;;;;;10.40;5.38;;;;;;;3.97;100.00;100959.78;5053397;28;20492;-84
2022/02/20 03:58:09;;;;;;;10.65;5.13;;;;;;;3.95;100.00;100944.06;5052680;28;20029;-85
2022/02/20 04:00:35;;;;;;;8.60;4.93;;;;;;;3.93;100.00;100933.59;5052897;28;20444;-83
2022/02/20 04:03:01;;;;;;;11.63;5.10;;;;;;;3.91;100.00;100930.16;5054434;28;20078;-85
2022/02/20 04:05:26;;;;;;;12.63;5.43;;;;;;;3.92;100.00;100933.66;5051647;28;20389;-83
2022/02/20 04:07:51;;;;;;;8.77;4.90;;;;;;;3.92;100.00;100920.53;5053358;28;20465;-85
2022/02/20 04:10:17;;;;;;;8.95;4.95;;;;;;;3.84;100.00;100910.19;5052525;28;20025;-84
2022/02/20 04:12:43;;;;;;;8.27;4.97;;;;;;;3.85;100.00;100918.91;5053563;28;20112;-85
2022/02/20 04:15:10;;;;;;;11.05;4.97;;;;;;;3.81;100.00;100922.47;5053112;28;20024;-85
2022/02/20 04:17:47;;;;;;;10.70;5.78;;;;;;;3.81;100.00;100902.38;5053124;28;20098;-85
2022/02/20 04:20:18;;;;;;;15.43;5.95;;;;;;;3.77;100.00;100896.34;5052963;28;20099;-84
2022/02/20 04:22:44;;;;;;;11.15;5.45;;;;;;;3.78;100.00;100876.22;5053554;28;20025;-85
2022/02/20 04:25:11;;;;;;;14.23;6.45;;;;;;;3.75;100.00;100877.13;5053317;28;20064;-85
2022/02/20 04:27:36;;;;;;;16.48;6.00;;;;;;;3.76;100.00;100857.91;5052351;28;20025;-84
2022/02/20 04:30:04;;;;;;;15.57;6.45;;;;;;;3.76;100.00;100864.94;5052885;28;20491;-83
2022/02/20 04:32:29;;;;;;;12.52;6.32;;;;;;;3.80;100.00;100852.63;5052403;28;20573;-83
2022/02/20 04:34:54;;;;;;;16.75;6.68;;;;;;;3.80;100.00;100839.53;5053801;28;20061;-83
2022/02/20 04:37:19;;;;;;;16.70;5.95;;;;;;;3.84;100.00;100847.31;5052744;28;20025;-84
2022/02/20 04:39:45;;;;;;;15.18;6.07;;;;;;;3.85;100.00;100838.56;5052416;28;20104;-84
2022/02/20 04:42:10;;;;;;;16.35;6.18;;;;;;;3.91;100.00;100841.09;5052753;28;20074;-84
2022/02/20 04:44:35;;;;;;;19.15;6.70;;;;;;;3.94;100.00;100827.06;5053458;28;20480;-85
2022/02/20 04:47:01;;;;;;;14.88;6.65;;;;;;;3.96;100.00;100821.81;5052926;28;20031;-82
2022/02/20 04:49:26;;;;;;;13.75;6.10;;;;;;;3.98;100.00;100815.66;5052430;28;20110;-82
2022/02/20 04:51:51;;;;;;;16.13;7.25;;;;;;;4.02;100.00;100806.81;5056129;28;20029;-80
2022/02/20 04:54:17;;;;;;;17.58;8.00;;;;;;;4.07;100.00;100785.78;5059307;28;20441;-78
2022/02/20 04:56:43;;;;;;;19.15;7.65;;;;;;;4.10;100.00;100756.91;5076912;28;20039;-80
2022/02/20 04:59:10;;;;;;;21.45;8.98;;;;;;;4.12;100.00;100757.75;5069165;28;20021;-81
2022/02/20 05:01:36;;;;;;;23.23;8.60;;;;;;;4.19;100.00;100750.63;5056654;28;20029;-80
2022/02/20 05:04:01;;;;;;;16.65;7.82;;;;;;;4.23;100.00;100740.06;5056572;28;20022;-80
2022/02/20 05:06:27;;;;;;;19.80;7.88;;;;;;;4.26;100.00;100731.25;5071893;28;20060;-80
2022/02/20 05:08:54;;;;;;;26.65;8.02;;;;;;;4.30;100.00;100734.66;5076710;28;20117;-81
2022/02/20 05:11:20;;;;;;;18.65;7.57;;;;;;;4.34;100.00;100708.34;5057310;28;20021;-79
2022/02/20 05:13:45;;;;;;;21.42;7.95;;;;;;;4.40;100.00;100705.59;5056440;28;20560;-80
2022/02/20 05:16:10;;;;;;;23.38;8.10;;;;;;;4.46;100.00;100695.88;5063429;28;20077;-79
2022/02/20 05:18:35;;;;;;;22.90;8.93;;;;;;;4.50;100.00;100684.41;5076389;28;20031;-82
2022/02/20 05:21:01;;;;;;;27.20;8.63;;;;;;;4.53;100.00;100687.00;5062691;28;20380;-82
2022/02/20 05:23:26;;;;;;;25.40;9.93;;;;;;;4.57;100.00;100680.78;5056171;28;20068;-83
2022/02/20 05:25:51;;;;;;;28.23;9.10;;;;;;;4.61;100.00;100678.97;5056224;28;20044;-84
2022/02/20 05:28:17;;;;;;;26.88;9.90;;;;;;;4.65;100.00;100688.47;5075521;28;20048;-79
2022/02/20 05:30:43;;;;;;;29.35;9.25;;;;;;;4.71;100.00;100691.81;5067404;28;20419;-83
2022/02/20 05:33:08;;;;;;;25.38;9.77;;;;;;;4.78;100.00;100681.19;5055670;28;20386;-79
2022/02/20 05:35:34;;;;;;;26.88;9.45;;;;;;;4.82;100.00;100686.34;5055923;28;20033;-80
2022/02/20 05:37:59;;;;;;;26.23;10.20;;;;;;;4.86;100.00;100671.34;5067074;28;20024;-82
2022/02/20 05:40:25;;;;;;;29.92;10.60;;;;;;;4.94;100.00;100669.44;5073042;28;20468;-84
2022/02/20 05:42:52;;;;;;;28.80;11.13;;;;;;;5.02;100.00;100658.75;5056161;28;20423;-81
2022/02/20 05:45:19;;;;;;;32.53;11.38;;;;;;;5.12;100.00;100668.09;5054091;28;20049;-81
2022/02/20 05:47:44;;;;;;;30.08;11.30;;;;;;;5.18;100.00;100653.94;5056562;28;20028;-81
2022/02/20 05:50:11;;;;;;;29.80;12.07;;;;;;;5.24;100.00;100662.56;5055640;28;20079;-81
2022/02/20 05:52:37;;;;;;;28.60;11.52;;;;;;;5.37;100.00;100657.84;5055162;28;20059;-80
2022/02/20 05:55:03;;;;;;;32.30;12.30;;;;;;;5.46;100.00;100642.72;5055532;28;20465;-79
2022/02/20 05:57:28;;;;;;;23.15;11.50;;;;;;;5.55;100.00;100638.09;5055537;28;20021;-77
2022/02/20 05:59:54;;;;;;;32.90;12.27;;;;;;;5.69;100.00;100623.72;5056394;28;20082;-80
2022/02/20 06:02:19;;;;;;;27.42;11.02;;;;;;;5.81;100.00;100622.53;5054149;28;20480;-80
2022/02/20 06:04:44;;;;;;;23.30;9.43;;;;;;;5.94;100.00;100609.88;5055442;28;20029;-79
2022/02/20 06:07:10;;;;;;;24.33;9.45;;;;;;;6.05;100.00;100611.31;5055397;28;20045;-81
2022/02/20 06:09:36;;;;;;;25.15;9.48;;;;;;;6.16;100.00;100610.13;5056403;28;20061;-82
2022/02/20 06:12:02;;;;;;;26.60;8.75;;;;;;;6.26;100.00;100603.69;5055206;28;20036;-79
2022/02/20 06:14:27;;;;;;;25.13;9.18;;;;;;;6.32;100.00;100598.25;5055146;28;20029;-81
2022/02/20 06:16:53;;;;;;;25.25;8.77;;;;;;;6.43;100.00;100605.78;5054867;28;20023;-81
2022/02/20 06:19:18;;;;;;;25.50;8.75;;;;;;;6.46;100.00;100620.59;5055371;28;20358;-81
2022/02/20 06:21:44;;;;;;;22.10;8.00;;;;;;;6.50;100.00;100609.09;5055696;28;20492;-80
2022/02/20 06:24:09;;;;;;;28.23;8.35;;;;;;;6.57;100.00;100615.88;5054637;28;20037;-80
2022/02/20 06:26:34;;;;;;;27.73;8.02;;;;;;;6.66;100.00;100614.72;5055003;28;20017;-79
2022/02/20 06:28:59;;;;;;;23.17;7.78;;;;;;;6.74;100.00;100591.66;5054882;28;20025;-81
2022/02/20 06:31:25;;;;;;;27.70;7.20;;;;;;;6.80;100.00;100615.13;5055712;28;20496;-81
2022/02/20 06:33:52;;;;;;;16.35;6.10;;;;;;;6.85;100.00;100615.00;5053936;28;20485;-79
2022/02/20 06:36:19;;;;;;;27.63;6.07;;;;;;;6.93;100.00;100596.31;5054843;28;20025;-78
2022/02/20 06:38:45;;;;;;;30.55;6.53;;;;;;;7.01;100.00;100599.56;5054766;28;20405;-77
2022/02/20 06:41:10;;;;;;;37.78;5.70;;;;;;;7.18;100.00;100585.81;5055904;28;20040;-78
2022/02/20 06:43:37;;;;;;;38.83;5.60;;;;;;;7.31;100.00;100581.81;5054346;28;20021;-79
2022/02/20 06:46:03;;;;;;;25.25;5.10;;;;;;;7.46;100.00;100582.19;5054488;28;20028;-78
2022/02/20 06:48:28;;;;;;;34.25;5.00;;;;;;;7.59;100.00;100586.09;5054253;28;20036;-79
2022/02/20 06:50:53;;;;;;;35.65;5.13;;;;;;;7.66;100.00;100579.69;5054582;28;20460;-78
2022/02/20 06:53:19;;;;;;;40.55;4.47;;;;;;;7.78;100.00;100577.53;5055439;28;20059;-77
2022/02/20 06:55:44;;;;;;;40.97;5.40;;;;;;;7.82;100.00;100587.03;5054378;28;20075;-78
2022/02/20 06:58:09;;;;;;;39.20;6.40;;;;;;;7.88;100.00;100577.09;5053685;28;20025;-78
2022/02/20 07:00:35;;;;;;;30.08;4.53;;;;;;;7.94;100.00;100564.59;5054423;28;20025;-78
2022/02/20 07:03:00;;;;;;;39.92;5.35;;;;;;;8.00;100.00;100562.59;5055023;28;20366;-77
2022/02/20 07:05:25;;;;;;;37.85;5.18;;;;;;;8.04;100.00;100544.88;5054074;28;20082;-77
2022/02/20 07:07:51;;;;;;;41.35;5.32;;;;;;;8.03;100.00;100549.31;5054497;28;20380;-77
2022/02/20 07:10:16;;;;;;;41.38;5.05;;;;;;;8.10;100.00;100515.63;5054209;28;20021;-77
2022/02/20 07:12:41;;;;;;;36.08;6.00;;;;;;;8.10;100.00;100543.78;5055132;28;20067;-78
2022/02/20 07:15:08;;;;;;;40.03;5.03;;;;;;;8.17;100.00;100538.22;5052936;28;20021;-76
2022/02/20 07:17:33;;;;;;;40.03;5.65;;;;;;;8.17;100.00;100551.41;5054074;28;20021;-77
2022/02/20 07:20:04;;;;;;;39.28;5.35;;;;;;;8.18;100.00;100550.50;5053739;28;20492;-76
2022/02/20 07:22:31;;;;;;;36.70;5.20;;;;;;;8.19;100.00;100535.50;5054137;28;20049;-76
2022/02/20 07:24:57;;;;;;;35.40;5.13;;;;;;;8.21;100.00;100528.41;5054575;28;20025;-76
2022/02/20 07:27:22;;;;;;;45.25;5.95;;;;;;;8.25;100.00;100518.56;5053441;28;20047;-75
2022/02/20 07:29:47;;;;;;;36.42;4.70;;;;;;;8.27;100.00;100532.56;5053501;28;20059;-75
2022/02/20 07:32:13;;;;;;;38.08;5.00;;;;;;;8.27;100.00;100522.84;5053545;28;20044;-74
2022/02/20 07:34:38;;;;;;;37.90;5.15;;;;;;;8.29;100.00;100504.34;5049211;28;20439;-75
2022/02/20 07:37:03;;;;;;;36.38;5.65;;;;;;;8.31;100.00;100495.44;5033637;28;20028;-75
2022/02/20 07:39:29;;;;;;;35.60;6.07;;;;;;;8.36;100.00;100521.63;5046734;28;20032;-75
2022/02/20 07:41:56;;;;;;;43.13;5.90;;;;;;;8.40;100.00;100519.72;5053736;28;20461;-75
2022/02/20 07:44:22;;;;;;;39.22;5.32;;;;;;;8.44;100.00;100508.13;5052339;28;20098;-74
2022/02/20 07:46:47;;;;;;;43.65;5.30;;;;;;;8.46;100.00;100514.22;5059068;28;20052;-75
2022/02/20 07:49:13;;;;;;;44.67;5.40;;;;;;;8.45;100.00;100521.28;5053312;28;20132;-74
2022/02/20 07:51:38;;;;;;;30.50;4.88;;;;;;;8.50;100.00;100515.81;5053252;28;20025;-75
2022/02/20 07:54:03;;;;;;;42.08;5.68;;;;;;;8.52;100.00;100528.03;5052209;28;20032;-74
2022/02/20 07:56:29;;;;;;;37.85;5.15;;;;;;;8.50;100.00;100527.25;5053369;28;20025;-75
2022/02/20 07:58:54;;;;;;;35.80;5.63;;;;;;;8.57;100.00;100524.34;5040882;28;21739;-75
2022/02/20 08:01:19;;;;;;;33.53;5.57;;;;;;;8.65;100.00;100501.13;5044334;28;20101;-76
2022/02/20 08:03:45;;;;;;;46.22;6.60;;;;;;;8.70;100.00;100515.00;5050968;28;20022;-75
2022/02/20 08:06:10;;;;;;;33.17;5.70;;;;;;;8.71;100.00;100522.00;5050071;28;20095;-76
2022/02/20 08:08:36;;;;;;;42.08;5.55;;;;;;;8.73;100.00;100506.09;5051640;28;20029;-76
2022/02/20 08:11:02;;;;;;;31.55;5.03;;;;;;;8.72;100.00;100523.72;5040519;28;20112;-74
2022/02/20 08:13:28;;;;;;;46.25;8.02;;;;;;;8.73;100.00;100493.72;5051514;28;20029;-74
2022/02/20 08:15:54;;;;;;;37.15;5.07;;;;;;;8.75;100.00;100506.88;5052524;28;20547;-76
2022/02/20 08:18:20;;;;;;;38.35;5.72;;;;;;;8.75;100.00;100509.53;5052043;28;20124;-75
2022/02/20 08:20:46;;;;;;;33.28;5.05;;;;;;;8.77;100.00;100519.09;5051969;28;20108;-75
2022/02/20 08:23:13;;;;;;;38.55;5.68;;;;;;;8.80;100.00;100503.13;5052472;28;20043;-76
2022/02/20 08:25:40;;;;;;;42.10;6.82;;;;;;;8.76;100.00;100516.50;5052535;28;20045;-75
2022/02/20 08:28:05;;;;;;;34.47;5.43;;;;;;;8.80;100.00;100505.75;5051891;28;20020;-75
2022/02/20 08:30:31;;;;;;;42.28;5.82;;;;;;;8.83;100.00;100513.53;5052633;28;20354;-75
2022/02/20 08:32:56;;;;;;;39.20;6.03;;;;;;;8.85;100.00;100498.50;5045334;28;20051;-76
2022/02/20 08:35:22;;;;;;;36.15;6.10;;;;;;;8.88;100.00;100507.22;5038315;28;20065;-76
2022/02/20 08:37:47;;;;;;;44.05;5.65;;;;;;;8.92;100.00;100499.09;5048050;28;20029;-76
2022/02/20 08:40:16;;;;;;;34.72;6.45;;;;;;;8.95;100.00;100535.06;5050646;28;20086;-76
2022/02/20 08:42:43;;;;;;;32.47;5.32;;;;;;;8.95;100.00;100520.09;5051600;28;20468;-75
2022/02/20 08:45:09;;;;;;;38.92;5.63;;;;;;;8.95;100.00;100528.00;5052614;28;20020;-76
2022/02/20 08:47:35;;;;;;;38.20;6.25;;;;;;;8.97;100.00;100534.06;5052414;28;20052;-76
2022/02/20 08:50:01;;;;;;;45.30;6.40;;;;;;;8.93;100.00;100527.22;5051725;28;20099;-76
2022/02/20 08:52:27;;;;;;;39.53;6.40;;;;;;;8.99;100.00;100513.75;5051939;28;20040;-73
2022/02/20 08:54:52;;;;;;;63.13;9.00;;;;;;;8.96;100.00;100516.50;5052479;28;20215;-76
2022/02/20 08:57:17;;;;;;;44.65;6.85;;;;;;;9.00;100.00;100522.50;5052123;28;20018;-76
2022/02/20 08:59:44;;;;;;;30.33;5.35;;;;;;;9.01;100.00;100498.69;5051823;28;20025;-76
2022/02/20 09:02:10;;;;;;;37.08;5.65;;;;;;;9.01;100.00;100518.97;5052521;28;20033;-75
2022/02/20 09:04:37;;;;;;;43.95;6.10;;;;;;;9.06;100.00;100509.03;5052554;28;20371;-77
2022/02/20 09:07:03;;;;;;;43.40;6.72;;;;;;;9.09;100.00;100500.13;5046338;28;20029;-74
2022/02/20 09:09:29;;;;;;;44.70;6.55;;;;;;;9.08;100.00;100503.69;5052372;28;20096;-73
2022/02/20 09:11:55;;;;;;;45.53;6.97;;;;;;;9.11;100.00;100501.78;5052721;28;20117;-75
2022/02/20 09:14:20;;;;;;;41.40;6.10;;;;;;;9.21;100.00;100523.38;5052362;28;20021;-76
2022/02/20 09:16:46;;;;;;;46.90;6.57;;;;;;;9.22;100.00;100516.28;5051721;28;20038;-76
2022/02/20 09:19:11;;;;;;;42.17;6.60;;;;;;;9.20;100.00;100515.53;5047859;28;20032;-76
2022/02/20 09:21:36;;;;;;;33.35;6.68;;;;;;;9.22;100.00;100506.59;5032103;28;20029;-75
2022/02/20 09:24:02;;;;;;;45.15;6.57;;;;;;;9.24;100.00;100498.59;5041946;28;20717;-76
2022/02/20 09:26:27;;;;;;;38.10;6.53;;;;;;;9.30;100.00;100501.81;5051779;28;20021;-76
2022/02/20 09:28:52;;;;;;;39.88;6.28;;;;;;;9.36;100.00;100498.06;5052197;28;20141;-76
2022/02/20 09:31:18;;;;;;;46.92;6.50;;;;;;;9.35;100.00;100483.13;5052249;28;20033;-77
2022/02/20 09:33:43;;;;;;;42.85;6.95;;;;;;;9.37;100.00;100475.97;5051836;28;20051;-77
2022/02/20 09:36:09;;;;;;;37.72;6.55;;;;;;;9.40;100.00;100488.19;5052148;28;20036;-76
2022/02/20 09:38:36;;;;;;;41.28;6.53;;;;;;;9.40;100.00;100498.75;5051680;28;20548;-75
2022/02/20 09:41:07;;;;;;;44.28;6.57;;;;;;;9.41;100.00;100505.75;5055062;28;20063;-74
2022/02/20 09:43:34;;;;;;;43.72;6.50;;;;;;;9.40;100.00;100489.06;5055228;28;20067;-77
2022/02/20 09:46:00;;;;;;;46.25;7.40;;;;;;;9.41;100.00;100487.25;5055457;28;20025;-76
2022/02/20 09:48:26;;;;;;;47.42;6.53;;;;;;;9.38;100.00;100466.28;5055402;28;20031;-77
2022/02/20 09:50:51;;;;;;;45.78;6.57;;;;;;;9.37;100.00;100502.38;5051207;28;20084;-77
2022/02/20 09:53:17;;;;;;;36.40;6.32;;;;;;;9.35;100.00;100507.75;5035031;28;20033;-76
2022/02/20 09:55:49;;;;;;;42.88;6.60;;;;;;;9.30;100.00;100500.97;5050225;28;20036;-76
2022/02/20 09:58:16;;;;;;;48.10;7.03;;;;;;;9.25;100.00;100495.88;5055061;28;20142;-76
2022/02/20 10:00:56;;;;;;;40.45;6.07;;;;;;;9.17;100.00;100488.31;5054201;28;20061;-75
2022/02/20 10:03:36;;;;;;;42.95;7.80;;;;;;;9.13;100.00;100485.84;5046307;28;20096;-76
2022/02/20 10:06:05;;;;;;;39.88;6.30;;;;;;;9.06;100.00;100505.56;5035156;28;20371;-74
2022/02/20 10:08:37;;;;;;;46.75;7.05;;;;;;;8.96;100.00;100518.28;5037629;28;20059;-74
2022/02/20 10:11:30;;;;;;;45.20;7.20;;;;;;;8.93;100.00;100498.16;5053512;28;20059;-75
2022/02/20 10:14:13;;;;;;;35.28;5.95;;;;;;;8.91;100.00;100512.34;5055079;28;20029;-73
2022/02/20 10:16:39;;;;;;;48.80;7.13;;;;;;;8.88;100.00;100504.56;5055198;28;20068;-75
2022/02/20 10:19:04;;;;;;;38.72;6.57;;;;;;;8.85;100.00;100495.00;5054580;28;20562;-74
2022/02/20 10:21:32;;;;;;;41.58;7.20;;;;;;;8.87;100.00;100484.38;5054982;28;20041;-74
2022/02/20 10:24:14;;;;;;;43.33;6.88;;;;;;;8.88;100.00;100515.13;5060714;28;20029;-75
2022/02/20 10:26:49;;;;;;;46.30;6.95;;;;;;;8.84;100.00;100498.56;5052942;28;20499;-75
2022/02/20 10:29:21;;;;;;;53.45;6.78;;;;;;;8.82;100.00;100497.75;5048110;28;20095;-75
2022/02/20 10:31:51;;;;;;;48.17;6.82;;;;;;;8.77;100.00;100503.25;5046552;28;20031;-74
2022/02/20 10:34:24;;;;;;;43.85;6.82;;;;;;;8.77;100.00;100491.81;5052154;28;20051;-75
2022/02/20 10:37:00;;;;;;;47.83;7.15;;;;;;;8.78;100.00;100493.53;5049500;28;20044;-75
2022/02/20 10:39:31;;;;;;;50.95;7.28;;;;;;;8.77;100.00;100447.81;5040649;28;20096;-74
2022/02/20 10:42:00;;;;;;;45.47;7.77;;;;;;;8.78;100.00;100461.88;5053964;28;20041;-74
2022/02/20 10:44:26;;;;;;;50.00;7.75;;;;;;;8.75;100.00;100468.13;5052805;28;20481;-74
2022/02/20 10:47:09;;;;;;;44.95;7.45;;;;;;;8.77;100.00;100463.66;5049927;28;20029;-75
2022/02/20 10:49:35;;;;;;;43.67;7.28;;;;;;;8.75;100.00;100467.28;5052942;28;20104;-74
2022/02/20 10:52:00;;;;;;;56.85;8.25;;;;;;;8.74;100.00;100469.06;5051576;28;20445;-74
2022/02/20 10:54:25;;;;;;;49.03;8.05;;;;;;;8.74;100.00;100432.09;5053681;28;20032;-74
2022/02/20 10:56:51;;;;;;;54.92;7.97;;;;;;;8.75;100.00;100460.22;5059717;28;20090;-74
2022/02/20 10:59:20;;;;;;;48.78;7.53;;;;;;;8.75;100.00;100425.91;5048254;28;20683;-74
2022/02/20 11:01:47;;;;;;;44.05;6.93;;;;;;;8.74;100.00;100458.50;5050111;28;20029;-74
2022/02/20 11:04:14;;;;;;;53.78;7.55;;;;;;;8.75;100.00;100452.28;5054094;28;20033;-73
2022/02/20 11:06:44;;;;;;;63.72;9.75;;;;;;;8.80;100.00;100441.53;5052939;28;20097;-74
2022/02/20 11:09:10;;;;;;;47.35;7.32;;;;;;;8.84;100.00;100437.84;5055475;28;20548;-73
2022/02/20 11:11:42;;;;;;;41.08;6.65;;;;;;;8.85;100.00;100448.31;5053488;28;20101;-73
2022/02/20 11:14:09;;;;;;;48.45;7.32;;;;;;;8.89;100.00;100412.09;5054173;28;20384;-74
2022/02/20 11:16:44;;;;;;;45.13;6.75;;;;;;;8.97;100.00;100412.59;5054514;28;20110;-73